Time;durP1;ratioP1;P1;durP2;ratioP2;P2;SDS_P1;SDS_P2;PMS_P1;PMS_P2;Temp;Humidity;BMP_temperature;BMP_pressure;BME280_temperature;BME280_humidity;BME280_pressure;Samples;Min_cycle;Max_cycle;Signal;HPM_P1;HPM_P2
2024/02/04 00:02:07;;;;;;;0.00;0.00;;;;;;;-145.06;100.00;54141.50;10407698;28;20079;-66
2024/02/04 00:07:07;;;;;;;0.00;0.00;;;;;;;-145.06;100.00;54149.59;10410741;28;20025;-67
2024/02/04 00:12:08;;;;;;;0.00;0.00;;;;;;;-145.06;100.00;54127.31;10410558;28;20055;-67
2024/02/04 00:17:08;;;;;;;0.00;0.00;;;;;;;-145.06;100.00;54149.59;10410304;28;20017;-67
2024/02/04 00:22:08;;;;;;;0.00;0.00;;;;;;;-145.06;100.00;54159.72;10409974;28;20028;-66
2024/02/04 00:27:08;;;;;;;0.00;0.00;;;;;;;-145.06;100.00;54169.84;10409727;28;20029;-67
2024/02/04 00:32:09;;;;;;;0.00;0.00;;;;;;;-145.06;100.00;54133.38;10409205;28;20029;-66
2024/02/04 00:37:09;;;;;;;0.00;0.00;;;;;;;-145.06;100.00;54149.59;10409638;28;20021;-67
2024/02/04 00:42:10;;;;;;;0.00;0.00;;;;;;;-145.06;100.00;54141.50;10409478;28;20034;-67
2024/02/04 00:47:10;;;;;;;0.00;0.00;;;;;;;-145.06;100.00;54141.50;10408699;28;20017;-67
2024/02/04 00:52:11;;;;;;;0.03;0.03;;;;;;;-145.06;100.00;54127.31;10407253;28;20028;-67
2024/02/04 00:57:11;;;;;;;0.00;0.00;;;;;;;-145.06;100.00;54117.19;10408335;28;20056;-67
2024/02/04 01:02:11;;;;;;;0.00;0.00;;;;;;;-145.06;100.00;54111.09;10408961;28;20017;-67
2024/02/04 01:07:12;;;;;;;0.00;0.00;;;;;;;-145.06;100.00;54090.84;10408591;28;20037;-66
2024/02/04 01:12:12;;;;;;;0.10;0.10;;;;;;;-145.06;100.00;54121.22;10408308;28;20029;-66
2024/02/04 01:17:12;;;;;;;0.00;0.00;;;;;;;-145.06;100.00;54078.72;10406701;28;20151;-66
2024/02/04 01:22:13;;;;;;;0.00;0.00;;;;;;;-145.06;100.00;54111.09;10405547;28;20017;-67
2024/02/04 01:27:13;;;;;;;0.00;0.00;;;;;;;-145.06;100.00;54062.50;10407496;28;20471;-67
2024/02/04 01:32:13;;;;;;;0.00;0.00;;;;;;;-145.06;100.00;54068.56;10407609;28;20017;-66
2024/02/04 01:37:14;;;;;;;0.10;0.10;;;;;;;-145.06;100.00;54060.47;10407492;28;20017;-66
2024/02/04 01:42:14;;;;;;;0.00;0.00;;;;;;;-145.06;100.00;54070.59;10405568;28;20473;-67
2024/02/04 01:47:14;;;;;;;0.00;0.00;;;;;;;-145.06;100.00;54084.78;10407200;28;20021;-68
2024/02/04 01:52:16;;;;;;;0.00;0.00;;;;;;;-145.06;100.00;54054.41;10407816;28;20344;-67
2024/02/04 01:57:16;;;;;;;0.00;0.00;;;;;;;-145.06;100.00;54058.44;10407706;28;20471;-67
2024/02/04 02:02:17;;;;;;;0.10;0.10;;;;;;;-145.06;100.00;54050.34;10406919;28;20021;-67
2024/02/04 02:07:21;;;;;;;0.10;0.10;;;;;;;-145.06;100.00;54034.16;10406570;28;20136;-67
2024/02/04 02:12:26;;;;;;;0.00;0.00;;;;;;;-145.06;100.00;54056.44;10405106;28;20074;-67
2024/02/04 02:17:36;;;;;;;0.00;0.00;;;;;;;-145.06;100.00;54086.81;10406479;28;20116;-67
2024/02/04 02:22:48;;;;;;;0.00;0.00;;;;;;;-145.06;100.00;54074.66;10405743;28;20057;-68
2024/02/04 02:27:49;;;;;;;0.00;0.00;;;;;;;-145.06;100.00;54086.81;10405289;28;20030;-67
2024/02/04 02:32:50;;;;;;;0.00;0.00;;;;;;;-145.06;100.00;54074.66;10404400;28;20503;-67
2024/02/04 02:38:11;;;;;;;0.03;0.03;;;;;;;-145.06;100.00;54088.84;10405582;28;20031;-67
2024/02/04 02:43:12;;;;;;;0.00;0.00;;;;;;;-145.06;100.00;54119.22;10404219;28;20353;-67
2024/02/04 02:48:13;;;;;;;0.00;0.00;;;;;;;-145.06;100.00;54127.31;10405463;28;20060;-67
2024/02/04 02:53:13;;;;;;;0.00;0.00;;;;;;;-145.06;100.00;54111.09;10405966;28;20340;-67
2024/02/04 02:58:14;;;;;;;0.00;0.00;;;;;;;-145.06;100.00;54127.31;10405217;28;20028;-67
2024/02/04 03:03:14;;;;;;;0.00;0.00;;;;;;;-145.06;100.00;54111.09;10405159;28;20022;-67
2024/02/04 03:08:14;;;;;;;0.00;0.00;;;;;;;-145.06;100.00;54107.06;10405319;28;20271;-67
2024/02/04 03:13:15;;;;;;;0.00;0.00;;;;;;;-145.06;100.00;54121.22;10401839;28;20025;-67
2024/02/04 03:18:15;;;;;;;0.00;0.00;;;;;;;-145.06;100.00;54137.44;10403035;28;20029;-67
2024/02/04 03:23:16;;;;;;;0.00;0.00;;;;;;;-145.06;100.00;54125.28;10406328;28;20511;-68
2024/02/04 03:28:16;;;;;;;0.00;0.00;;;;;;;-145.06;100.00;54119.22;10410106;28;20096;-68
2024/02/04 03:33:16;;;;;;;0.00;0.00;;;;;;;-145.06;100.00;54123.25;10412306;28;20017;-67
2024/02/04 03:38:16;;;;;;;0.00;0.00;;;;;;;-145.06;100.00;54147.56;10411891;28;20427;-67
2024/02/04 03:43:17;;;;;;;0.00;0.00;;;;;;;-145.06;100.00;54159.72;10412005;28;20041;-67
2024/02/04 03:48:17;;;;;;;0.00;0.00;;;;;;;-145.06;100.00;54131.34;10407841;28;20097;-67
2024/02/04 03:53:18;;;;;;;0.00;0.00;;;;;;;-145.06;100.00;54159.72;10410083;28;20017;-68
2024/02/04 03:58:20;;;;;;;0.00;0.00;;;;;;;-145.06;100.00;54137.44;10410903;28;20120;-67
2024/02/04 04:03:20;;;;;;;0.00;0.00;;;;;;;-145.06;100.00;54163.75;10411498;28;20028;-67
2024/02/04 04:08:20;;;;;;;0.00;0.00;;;;;;;-145.06;100.00;54137.44;10410546;28;20378;-67
2024/02/04 04:13:21;;;;;;;0.00;0.00;;;;;;;-145.06;100.00;54137.44;10410969;28;20036;-67
2024/02/04 04:18:21;;;;;;;0.00;0.00;;;;;;;-145.06;100.00;54167.81;10410182;28;20272;-67
2024/02/04 04:23:21;;;;;;;0.00;0.00;;;;;;;-145.06;100.00;54139.47;10410026;28;20235;-67
2024/02/04 04:28:22;;;;;;;0.00;0.00;;;;;;;-145.06;100.00;54171.88;10409682;28;20339;-66
2024/02/04 04:33:22;;;;;;;0.00;0.00;;;;;;;-145.06;100.00;54145.53;10409017;28;20839;-67
2024/02/04 04:38:22;;;;;;;0.00;0.00;;;;;;;-145.06;100.00;54182.00;10406926;28;20262;-66
2024/02/04 04:43:23;;;;;;;0.00;0.00;;;;;;;-145.06;100.00;54165.78;10409201;28;20264;-67
2024/02/04 04:48:23;;;;;;;0.08;0.08;;;;;;;-145.06;100.00;54163.75;10407189;28;20021;-67
2024/02/04 04:53:23;;;;;;;0.10;0.10;;;;;;;-145.06;100.00;54177.94;10407521;28;20033;-68
2024/02/04 04:58:23;;;;;;;0.00;0.00;;;;;;;-145.06;100.00;54188.06;10406776;28;20025;-66
2024/02/04 05:03:24;;;;;;;0.00;0.00;;;;;;;-145.06;100.00;54200.22;10408258;28;20170;-67
2024/02/04 05:08:24;;;;;;;0.00;0.00;;;;;;;-145.06;100.00;54177.94;10407413;28;20022;-65
2024/02/04 05:13:24;;;;;;;0.00;0.00;;;;;;;-145.06;100.00;54165.78;10407881;28;20372;-68
2024/02/04 05:18:26;;;;;;;0.00;0.00;;;;;;;-145.06;100.00;54200.22;10407143;28;20752;-67
2024/02/04 05:23:27;;;;;;;0.00;0.00;;;;;;;-145.06;100.00;54188.06;10407564;28;20487;-67
2024/02/04 05:28:27;;;;;;;0.00;0.00;;;;;;;-145.06;100.00;54184.03;10407422;28;20017;-67
2024/02/04 05:33:27;;;;;;;0.00;0.00;;;;;;;-145.06;100.00;54188.06;10406029;28;20033;-67
2024/02/04 05:38:28;;;;;;;0.00;0.00;;;;;;;-145.06;100.00;54171.88;10406992;28;20075;-67
2024/02/04 05:43:28;;;;;;;0.10;0.10;;;;;;;-145.06;100.00;54206.28;10405257;28;20356;-66
2024/02/04 05:48:28;;;;;;;0.00;0.00;;;;;;;-145.06;100.00;54151.63;10405708;28;20447;-67
2024/02/04 05:53:28;;;;;;;0.00;0.00;;;;;;;-145.06;100.00;54200.22;10407340;28;20022;-67
2024/02/04 05:58:29;;;;;;;0.00;0.00;;;;;;;-145.06;100.00;54175.91;10405917;28;20032;-67
2024/02/04 06:03:29;;;;;;;0.05;0.05;;;;;;;-145.06;100.00;54188.06;10406313;28;20040;-67
2024/02/04 06:08:30;;;;;;;0.00;0.00;;;;;;;-145.06;100.00;54194.16;10405507;28;20049;-67
2024/02/04 06:13:30;;;;;;;0.00;0.00;;;;;;;-145.06;100.00;54204.28;10406125;28;20040;-68
2024/02/04 06:18:30;;;;;;;0.00;0.00;;;;;;;-145.06;100.00;54190.09;10404371;28;20375;-68
2024/02/04 06:23:31;;;;;;;0.00;0.00;;;;;;;-145.06;100.00;54161.75;10405865;28;20027;-68
2024/02/04 06:28:31;;;;;;;0.00;0.00;;;;;;;-145.06;100.00;54163.75;10405261;28;20284;-67
2024/02/04 06:33:32;;;;;;;0.00;0.00;;;;;;;-145.06;100.00;54159.72;10405836;28;20025;-67
2024/02/04 06:38:32;;;;;;;0.00;0.00;;;;;;;-145.06;100.00;54188.06;10405489;28;20256;-67
2024/02/04 06:43:32;;;;;;;0.00;0.00;;;;;;;-145.06;100.00;54182.00;10405711;28;20252;-68
2024/02/04 06:48:32;;;;;;;0.00;0.00;;;;;;;-145.06;100.00;54159.72;10404950;28;20021;-68
2024/02/04 06:53:33;;;;;;;0.00;0.00;;;;;;;-145.06;100.00;54159.72;10405281;28;20290;-68
2024/02/04 06:58:36;;;;;;;0.00;0.00;;;;;;;-145.06;100.00;54198.19;10410043;28;20086;-67
2024/02/04 07:03:37;;;;;;;0.00;0.00;;;;;;;-145.06;100.00;54192.13;10411210;28;20043;-68
2024/02/04 07:08:37;;;;;;;0.00;0.00;;;;;;;-145.06;100.00;54159.72;10412463;28;20026;-68
2024/02/04 07:13:39;;;;;;;0.00;0.00;;;;;;;-145.06;100.00;54165.78;10413352;28;20033;-68
2024/02/04 07:18:40;;;;;;;0.00;0.00;;;;;;;-145.06;100.00;54163.75;10412750;28;20384;-68
2024/02/04 07:23:40;;;;;;;0.00;0.00;;;;;;;-145.06;100.00;54171.88;10412878;28;20021;-68
2024/02/04 07:28:40;;;;;;;0.00;0.00;;;;;;;-145.06;100.00;54149.59;10408148;28;20139;-68
2024/02/04 07:33:41;;;;;;;0.00;0.00;;;;;;;-145.06;100.00;54165.78;10412338;28;20150;-68
2024/02/04 07:38:41;;;;;;;0.00;0.00;;;;;;;-145.06;100.00;54131.34;10409588;28;20264;-68
2024/02/04 07:43:43;;;;;;;0.00;0.00;;;;;;;-145.06;100.00;54149.59;10411456;28;20026;-68
2024/02/04 07:48:44;;;;;;;0.00;0.00;;;;;;;-145.06;100.00;54125.28;10409076;28;20120;-67
2024/02/04 07:53:44;;;;;;;0.00;0.00;;;;;;;-145.06;100.00;54143.50;10407006;28;20025;-66
2024/02/04 07:58:44;;;;;;;0.05;0.05;;;;;;;-145.06;100.00;54149.59;10411364;28;20017;-67
2024/02/04 08:03:46;;;;;;;0.00;0.00;;;;;;;-145.06;100.00;54103.00;10410491;28;20565;-67
2024/02/04 08:08:47;;;;;;;0.00;0.00;;;;;;;-145.06;100.00;54078.72;10409290;28;20022;-67
2024/02/04 08:13:48;;;;;;;0.10;0.10;;;;;;;-145.06;100.00;54072.63;10410517;28;20041;-68
2024/02/04 08:18:48;;;;;;;0.05;0.05;;;;;;;-145.06;100.00;54062.50;10408480;28;20013;-68
2024/02/04 08:23:48;;;;;;;0.10;0.10;;;;;;;-145.06;100.00;54076.69;10408254;28;20021;-67
2024/02/04 08:28:49;;;;;;;0.00;0.00;;;;;;;-145.06;100.00;54074.66;10409575;28;20025;-68
2024/02/04 08:33:49;;;;;;;0.00;0.00;;;;;;;-145.06;100.00;54056.44;10409873;28;20167;-67
2024/02/04 08:38:49;;;;;;;0.00;0.00;;;;;;;-145.06;100.00;54058.44;10409246;28;20017;-67
2024/02/04 08:43:49;;;;;;;0.00;0.00;;;;;;;-145.06;100.00;54042.25;10409692;28;20274;-68
2024/02/04 08:48:50;;;;;;;0.10;0.10;;;;;;;-145.06;100.00;54042.25;10408694;28;20099;-68
2024/02/04 08:53:50;;;;;;;0.00;0.00;;;;;;;-145.06;100.00;54009.84;10409175;28;20112;-68
2024/02/04 08:58:51;;;;;;;0.00;0.00;;;;;;;-145.06;100.00;54034.16;10408604;28;20017;-68
2024/02/04 09:03:51;;;;;;;0.10;0.10;;;;;;;-145.06;100.00;53997.69;10407934;28;20392;-67
2024/02/04 09:08:51;;;;;;;0.00;0.00;;;;;;;-145.06;100.00;53969.34;10408274;28;20398;-68
2024/02/04 09:13:52;;;;;;;0.00;0.00;;;;;;;-145.06;100.00;54022.00;10406450;28;20139;-68
2024/02/04 09:18:52;;;;;;;0.10;0.10;;;;;;;-145.06;100.00;53995.66;10407275;28;20405;-68
2024/02/04 09:23:53;;;;;;;0.00;0.00;;;;;;;-145.06;100.00;53991.63;10406570;28;20013;-68
2024/02/04 09:28:53;;;;;;;0.00;0.00;;;;;;;-145.06;100.00;53985.53;10406457;28;20284;-67
2024/02/04 09:33:53;;;;;;;0.10;0.10;;;;;;;-145.06;100.00;54001.75;10406459;28;20032;-67
2024/02/04 09:38:55;;;;;;;0.10;0.10;;;;;;;-145.06;100.00;53977.44;10407009;28;20117;-68
2024/02/04 09:43:57;;;;;;;0.00;0.00;;;;;;;-145.06;100.00;53991.63;10405969;28;20111;-67
2024/02/04 09:48:58;;;;;;;0.10;0.10;;;;;;;-145.06;100.00;53961.25;10406699;28;20562;-68
2024/02/04 09:54:04;;;;;;;0.00;0.00;;;;;;;-145.06;100.00;53963.25;10406134;28;20104;-68
2024/02/04 09:59:04;;;;;;;0.00;0.00;;;;;;;-145.06;100.00;53997.69;10403481;28;20626;-68
2024/02/04 10:04:05;;;;;;;0.00;0.00;;;;;;;-145.06;100.00;53961.25;10404457;28;20041;-68
2024/02/04 10:09:05;;;;;;;0.05;0.05;;;;;;;-145.06;100.00;53967.31;10406871;28;20022;-68
2024/02/04 10:14:06;;;;;;;0.10;0.10;;;;;;;-145.06;100.00;53975.41;10404721;28;20219;-67
2024/02/04 10:19:07;;;;;;;0.10;0.10;;;;;;;-145.06;100.00;53941.00;10404237;28;20068;-67
2024/02/04 10:24:08;;;;;;;0.00;0.00;;;;;;;-145.06;100.00;53928.84;10403783;28;20549;-68
2024/02/04 10:29:08;;;;;;;0.10;0.10;;;;;;;-145.06;100.00;53965.28;10406099;28;20018;-68
2024/02/04 10:34:08;;;;;;;0.10;0.10;;;;;;;-145.06;100.00;53936.94;10404111;28;20017;-68
2024/02/04 10:39:09;;;;;;;0.00;0.00;;;;;;;-145.06;100.00;53924.78;10404853;28;20261;-68
2024/02/04 10:44:12;;;;;;;0.00;0.00;;;;;;;-145.06;100.00;53918.72;10405473;28;20437;-68
2024/02/04 10:49:14;;;;;;;0.00;0.00;;;;;;;-145.06;100.00;53920.75;10405055;28;20099;-68
2024/02/04 10:54:17;;;;;;;0.00;0.00;;;;;;;-145.06;100.00;53920.75;10405218;28;20057;-68
2024/02/04 10:59:19;;;;;;;0.00;0.00;;;;;;;-145.06;100.00;53936.94;10404271;28;20083;-68
2024/02/04 11:04:20;;;;;;;0.10;0.10;;;;;;;-145.06;100.00;53930.88;10403702;28;20036;-67
2024/02/04 11:09:22;;;;;;;0.10;0.10;;;;;;;-145.06;100.00;53896.44;10404501;28;20037;-68
2024/02/04 11:14:22;;;;;;;0.10;0.10;;;;;;;-145.06;100.00;53872.13;10402977;28;20061;-67
2024/02/04 11:19:46;;;;;;;0.10;0.10;;;;;;;-145.06;100.00;53916.69;10403650;28;20045;-68
2024/02/04 11:25:03;;;;;;;0.00;0.00;;;;;;;-145.06;100.00;53886.31;10403267;28;20076;-68
2024/02/04 11:30:04;;;;;;;0.00;0.00;;;;;;;-145.06;100.00;53862.00;10401936;28;20095;-68
2024/02/04 11:35:07;;;;;;;0.10;0.10;;;;;;;-145.06;100.00;53884.28;10403055;28;20320;-68
2024/02/04 11:40:13;;;;;;;0.10;0.10;;;;;;;-145.06;100.00;53857.97;10401512;28;20036;-68
2024/02/04 11:45:14;;;;;;;0.10;0.10;;;;;;;-145.06;100.00;53829.59;10409992;28;20017;-68
2024/02/04 11:50:28;;;;;;;0.10;0.10;;;;;;;-145.06;100.00;53868.09;10410903;28;20029;-68
2024/02/04 11:55:29;;;;;;;0.10;0.10;;;;;;;-145.06;100.00;53859.97;10409769;28;20112;-68
2024/02/04 12:00:32;;;;;;;0.10;0.10;;;;;;;-145.06;100.00;53857.97;10410750;28;20112;-68
2024/02/04 12:05:34;;;;;;;0.10;0.10;;;;;;;-145.06;100.00;53827.59;10405036;28;20032;-68
2024/02/04 12:10:36;;;;;;;0.00;0.00;;;;;;;-145.06;100.00;53847.84;10410253;28;20017;-68
2024/02/04 12:15:36;;;;;;;0.10;0.10;;;;;;;-145.06;100.00;53851.88;10410923;28;20049;-68
2024/02/04 12:20:37;;;;;;;0.03;0.03;;;;;;;-145.06;100.00;53888.34;10408643;28;20138;-68
2024/02/04 12:25:38;;;;;;;0.10;0.10;;;;;;;-145.06;100.00;53864.03;10409756;28;20399;-67
2024/02/04 12:30:38;;;;;;;0.00;0.00;;;;;;;-145.06;100.00;53829.59;10407382;28;20028;-68
2024/02/04 12:35:40;;;;;;;0.05;0.05;;;;;;;-145.06;100.00;53843.78;10409363;28;20022;-67
2024/02/04 12:40:40;;;;;;;0.03;0.03;;;;;;;-145.06;100.00;53835.69;10409569;28;20075;-68
2024/02/04 12:45:41;;;;;;;0.10;0.10;;;;;;;-145.06;100.00;53839.72;10407636;28;20405;-68
2024/02/04 12:50:41;;;;;;;0.10;0.10;;;;;;;-145.06;100.00;53853.91;10408945;28;20028;-68
2024/02/04 12:55:42;;;;;;;0.07;0.07;;;;;;;-145.06;100.00;53843.78;10406544;28;20025;-67
2024/02/04 13:00:43;;;;;;;0.10;0.10;;;;;;;-145.06;100.00;53888.34;10406397;28;20347;-68
2024/02/04 13:05:43;;;;;;;0.10;0.10;;;;;;;-145.06;100.00;53819.47;10408504;28;20443;-68
2024/02/04 13:10:46;;;;;;;0.00;0.00;;;;;;;-145.06;100.00;53884.28;10408389;28;20029;-68
2024/02/04 13:15:46;;;;;;;0.10;0.10;;;;;;;-145.06;100.00;53876.19;10405574;28;20675;-67
2024/02/04 13:20:46;;;;;;;0.10;0.10;;;;;;;-145.06;100.00;53876.19;10407415;28;20018;-68
2024/02/04 13:25:47;;;;;;;0.00;0.00;;;;;;;-145.06;100.00;53870.09;10407898;28;20348;-68
2024/02/04 13:30:47;;;;;;;0.10;0.10;;;;;;;-145.06;100.00;53880.22;10407663;28;20025;-65
2024/02/04 13:35:48;;;;;;;0.10;0.10;;;;;;;-145.06;100.00;53876.19;10406961;28;20026;-68
2024/02/04 13:40:49;;;;;;;0.10;0.10;;;;;;;-145.06;100.00;53888.34;10404936;28;20024;-68
2024/02/04 13:45:49;;;;;;;0.10;0.10;;;;;;;-145.06;100.00;53882.25;10408224;28;20018;-68
2024/02/04 13:50:50;;;;;;;0.00;0.00;;;;;;;-145.06;100.00;53876.19;10407068;28;20030;-67
2024/02/04 13:55:50;;;;;;;0.10;0.10;;;;;;;-145.06;100.00;53882.25;10405132;28;20021;-68
2024/02/04 14:00:50;;;;;;;0.10;0.10;;;;;;;-145.06;100.00;53892.38;10405467;28;20352;-67
2024/02/04 14:05:51;;;;;;;0.10;0.10;;;;;;;-145.06;100.00;53900.50;10406996;28;20279;-68
2024/02/04 14:10:52;;;;;;;0.10;0.10;;;;;;;-145.06;100.00;53900.50;10411655;28;20596;-69
2024/02/04 14:15:52;;;;;;;0.00;0.00;;;;;;;-145.06;100.00;53896.44;10405950;28;20021;-68
2024/02/04 14:20:52;;;;;;;0.10;0.10;;;;;;;-145.06;100.00;53908.59;10408653;28;20104;-68
2024/02/04 14:25:53;;;;;;;0.00;0.00;;;;;;;-145.06;100.00;53904.53;10405978;28;20029;-69
2024/02/04 14:30:53;;;;;;;0.10;0.10;;;;;;;-145.06;100.00;53926.81;10404559;28;20148;-69
2024/02/04 14:35:53;;;;;;;0.10;0.10;;;;;;;-145.06;100.00;53928.84;10405748;28;20028;-69
2024/02/04 14:40:54;;;;;;;0.10;0.10;;;;;;;-145.06;100.00;53934.91;10398138;28;20395;-69
2024/02/04 14:45:54;;;;;;;0.10;0.10;;;;;;;-145.06;100.00;53892.38;10405339;28;20621;-68
2024/02/04 14:50:57;;;;;;;0.10;0.10;;;;;;;-145.06;100.00;53908.59;10404012;28;20036;-69
2024/02/04 14:55:57;;;;;;;0.10;0.10;;;;;;;-145.06;100.00;53926.81;10402689;28;20026;-69
2024/02/04 15:00:57;;;;;;;0.10;0.10;;;;;;;-145.06;100.00;53945.03;10403746;28;20389;-68
2024/02/04 15:05:58;;;;;;;0.00;0.00;;;;;;;-145.06;100.00;53908.59;10405421;28;20026;-68
2024/02/04 15:10:58;;;;;;;0.10;0.10;;;;;;;-145.06;100.00;53904.53;10404546;28;20390;-69
2024/02/04 15:15:59;;;;;;;0.10;0.10;;;;;;;-145.06;100.00;53912.63;10404759;28;20555;-69
2024/02/04 15:20:59;;;;;;;0.10;0.10;;;;;;;-145.06;100.00;53949.09;10411735;28;20451;-68
2024/02/04 15:26:00;;;;;;;0.10;0.10;;;;;;;-145.06;100.00;53928.84;10412252;28;20048;-69
2024/02/04 15:31:00;;;;;;;0.10;0.10;;;;;;;-145.06;100.00;53914.66;10411672;28;20433;-69
2024/02/04 15:36:01;;;;;;;0.10;0.10;;;;;;;-145.06;100.00;53943.00;10412038;28;20496;-69
2024/02/04 15:41:01;;;;;;;0.00;0.00;;;;;;;-145.06;100.00;53924.78;10410074;28;20029;-70
2024/02/04 15:46:09;;;;;;;0.10;0.10;;;;;;;-145.06;100.00;53975.41;10411759;28;20064;-70
2024/02/04 15:51:10;;;;;;;0.00;0.00;;;;;;;-145.06;100.00;53973.41;10410299;28;20158;-70
2024/02/04 15:56:10;;;;;;;0.08;0.08;;;;;;;-145.06;100.00;53985.53;10410088;28;20179;-70
2024/02/04 16:01:14;;;;;;;0.10;0.10;;;;;;;-145.06;100.00;53997.69;10410122;28;20113;-70
2024/02/04 16:06:15;;;;;;;0.00;0.00;;;;;;;-145.06;100.00;53965.28;10410886;28;20352;-69
2024/02/04 16:11:19;;;;;;;0.08;0.08;;;;;;;-145.06;100.00;53987.56;10409092;28;20037;-70
2024/02/04 16:16:21;;;;;;;0.10;0.10;;;;;;;-145.06;100.00;53997.69;10410409;28;20108;-70
2024/02/04 16:21:22;;;;;;;0.00;0.00;;;;;;;-145.06;100.00;54019.97;10408006;28;20351;-70
2024/02/04 16:26:22;;;;;;;0.10;0.10;;;;;;;-145.06;100.00;54017.94;10411109;28;20034;-70
2024/02/04 16:31:23;;;;;;;0.00;0.00;;;;;;;-145.06;100.00;54026.06;10408224;28;20104;-70
2024/02/04 16:36:23;;;;;;;0.00;0.00;;;;;;;-145.06;100.00;54056.44;10407050;28;20025;-69
2024/02/04 16:41:23;;;;;;;0.10;0.10;;;;;;;-145.06;100.00;54017.94;10409922;28;20031;-69
2024/02/04 16:46:23;;;;;;;0.07;0.07;;;;;;;-145.06;100.00;54054.41;10407092;28;20052;-69
2024/02/04 16:51:24;;;;;;;0.10;0.10;;;;;;;-145.06;100.00;54066.56;10410985;28;20467;-69
2024/02/04 16:56:24;;;;;;;0.10;0.10;;;;;;;-145.06;100.00;54056.44;10400504;28;20017;-69
2024/02/04 17:01:25;;;;;;;0.10;0.10;;;;;;;-145.06;100.00;54054.41;10409021;28;20036;-69
2024/02/04 17:06:28;;;;;;;0.00;0.00;;;;;;;-145.06;100.00;54056.44;10411101;28;20368;-69
2024/02/04 17:11:29;;;;;;;0.10;0.10;;;;;;;-145.06;100.00;54054.41;10408768;28;20426;-69
2024/02/04 17:16:53;;;;;;;0.00;0.00;;;;;;;-145.06;100.00;54100.97;10407153;28;20021;-69
2024/02/04 17:21:56;;;;;;;0.00;0.00;;;;;;;-145.06;100.00;54084.78;10406214;28;20337;-69
2024/02/04 17:27:04;;;;;;;0.10;0.10;;;;;;;-145.06;100.00;54129.34;10407412;28;20025;-69
2024/02/04 17:32:09;;;;;;;0.00;0.00;;;;;;;-145.06;100.00;54107.06;10407718;28;20028;-69
2024/02/04 17:37:09;;;;;;;0.10;0.10;;;;;;;-145.06;100.00;54123.25;10408342;28;20022;-68
2024/02/04 17:42:10;;;;;;;0.10;0.10;;;;;;;-145.06;100.00;54096.94;10406323;28;20017;-68
2024/02/04 17:47:10;;;;;;;0.00;0.00;;;;;;;-145.06;100.00;54092.88;10406433;28;20055;-68
2024/02/04 17:52:11;;;;;;;0.10;0.10;;;;;;;-145.06;100.00;54092.88;10405394;28;20104;-68
2024/02/04 17:57:11;;;;;;;0.10;0.10;;;;;;;-145.06;100.00;54113.13;10407838;28;20418;-68
2024/02/04 18:02:12;;;;;;;0.10;0.10;;;;;;;-145.06;100.00;54119.22;10406444;28;20028;-69
2024/02/04 18:07:12;;;;;;;0.00;0.00;;;;;;;-145.06;100.00;54119.22;10407346;28;20032;-69
2024/02/04 18:12:12;;;;;;;0.00;0.00;;;;;;;-145.06;100.00;54135.41;10405793;28;20017;-69
2024/02/04 18:17:13;;;;;;;0.10;0.10;;;;;;;-145.06;100.00;54131.34;10407415;28;20492;-69
2024/02/04 18:22:13;;;;;;;0.00;0.00;;;;;;;-145.06;100.00;54157.69;10406442;28;20018;-69
2024/02/04 18:27:13;;;;;;;0.10;0.10;;;;;;;-145.06;100.00;54163.75;10399740;28;20260;-68
2024/02/04 18:32:14;;;;;;;0.10;0.10;;;;;;;-145.06;100.00;54143.50;10401763;28;20280;-68
2024/02/04 18:37:14;;;;;;;0.10;0.10;;;;;;;-145.06;100.00;54137.44;10401744;28;20125;-68
2024/02/04 18:42:14;;;;;;;0.00;0.00;;;;;;;-145.06;100.00;54155.66;10406958;28;20324;-69
2024/02/04 18:47:15;;;;;;;0.10;0.10;;;;;;;-145.06;100.00;54155.66;10406097;28;20471;-69
2024/02/04 18:52:16;;;;;;;0.00;0.00;;;;;;;-145.06;100.00;54165.78;10405129;28;20018;-69
2024/02/04 18:57:17;;;;;;;0.00;0.00;;;;;;;-145.06;100.00;54155.66;10413142;28;20025;-69
2024/02/04 19:02:18;;;;;;;0.00;0.00;;;;;;;-145.06;100.00;54159.72;10415059;28;20025;-69
2024/02/04 19:07:18;;;;;;;0.00;0.00;;;;;;;-145.06;100.00;54167.81;10414507;28;20355;-69
2024/02/04 19:12:19;;;;;;;0.10;0.10;;;;;;;-145.06;100.00;54212.38;10414320;28;20435;-69
2024/02/04 19:17:19;;;;;;;0.00;0.00;;;;;;;-145.06;100.00;54212.38;10410487;28;20495;-69
2024/02/04 19:22:24;;;;;;;0.00;0.00;;;;;;;-145.06;100.00;54208.31;10412283;28;20286;-69
2024/02/04 19:27:25;;;;;;;0.00;0.00;;;;;;;-145.06;100.00;54220.47;10413326;28;20479;-69
2024/02/04 19:32:26;;;;;;;0.00;0.00;;;;;;;-145.06;100.00;54224.53;10413630;28;20021;-69
2024/02/04 19:37:26;;;;;;;0.10;0.10;;;;;;;-145.06;100.00;54236.69;10412130;28;20078;-69
2024/02/04 19:42:26;;;;;;;0.00;0.00;;;;;;;-145.06;100.00;54271.09;10413323;28;20085;-69
2024/02/04 19:47:26;;;;;;;0.00;0.00;;;;;;;-145.06;100.00;54246.81;10412156;28;20025;-69
2024/02/04 19:52:27;;;;;;;0.00;0.00;;;;;;;-145.06;100.00;54297.44;10412376;28;20021;-69
2024/02/04 19:57:28;;;;;;;0.10;0.10;;;;;;;-145.06;100.00;54299.47;10412066;28;20425;-69
2024/02/04 20:02:28;;;;;;;0.00;0.00;;;;;;;-145.06;100.00;54281.22;10410022;28;20618;-69
2024/02/04 20:07:29;;;;;;;0.00;0.00;;;;;;;-145.06;100.00;54331.88;10411674;28;20021;-69
2024/02/04 20:12:29;;;;;;;0.10;0.10;;;;;;;-145.06;100.00;54358.19;10412192;28;20037;-69
2024/02/04 20:17:30;;;;;;;0.00;0.00;;;;;;;-145.06;100.00;54374.41;10410568;28;20018;-69
2024/02/04 20:22:30;;;;;;;0.10;0.10;;;;;;;-145.06;100.00;54392.63;10411493;28;20021;-69
2024/02/04 20:27:31;;;;;;;0.03;0.03;;;;;;;-145.06;100.00;54431.13;10408719;28;20021;-69
2024/02/04 20:32:31;;;;;;;0.00;0.00;;;;;;;-145.06;100.00;54461.50;10411576;28;20379;-69
2024/02/04 20:37:32;;;;;;;0.10;0.10;;;;;;;-145.06;100.00;54489.84;10411371;28;20017;-69
2024/02/04 20:42:33;;;;;;;0.08;0.08;;;;;;;-145.06;100.00;54532.38;10411378;28;20498;-69
2024/02/04 20:47:34;;;;;;;0.10;0.10;;;;;;;-145.06;100.00;54518.22;10409664;28;20025;-69
2024/02/04 20:52:34;;;;;;;0.10;0.10;;;;;;;-145.06;100.00;54572.91;10410393;28;20023;-69
2024/02/04 20:57:34;;;;;;;0.00;0.00;;;;;;;-145.06;100.00;54617.47;10409610;28;20379;-69
2024/02/04 21:02:35;;;;;;;0.10;0.10;;;;;;;-145.06;100.00;54635.69;10409440;28;20022;-69
2024/02/04 21:07:35;;;;;;;0.10;0.10;;;;;;;-145.06;100.00;54672.16;10411353;28;20026;-69
2024/02/04 21:12:35;;;;;;;0.00;0.00;;;;;;;-145.06;100.00;54745.06;10408487;28;20021;-69
2024/02/04 21:17:36;;;;;;;0.00;0.00;;;;;;;-145.06;100.00;54809.88;10409587;28;20017;-69
2024/02/04 21:22:36;;;;;;;0.10;0.10;;;;;;;-145.06;100.00;54933.44;10408174;28;20268;-69
2024/02/04 21:27:36;;;;;;;0.10;0.10;;;;;;;-145.06;100.00;55042.84;10407943;28;20026;-69
2024/02/04 21:32:37;;;;;;;0.10;0.10;;;;;;;-145.06;100.00;55192.75;10405236;28;20072;-69
2024/02/04 21:37:38;;;;;;;0.00;0.00;;;;;;;-145.06;100.00;55294.03;10407526;28;20025;-69
2024/02/04 21:42:39;;;;;;;0.10;0.10;;;;;;;-145.06;100.00;55419.66;10410075;28;20040;-69
2024/02/04 21:47:39;;;;;;;0.05;0.05;;;;;;;-145.06;100.00;55456.13;10407228;28;20499;-69
2024/02/04 21:52:39;;;;;;;0.00;0.00;;;;;;;-145.06;100.00;55780.28;10416989;28;20025;-69
2024/02/04 21:57:39;;;;;;;0.10;0.10;;;;;;;-145.06;100.00;56130.81;10409721;28;20059;-69
2024/02/04 22:02:40;;;;;;;0.10;0.10;;;;;;;-145.06;100.00;56373.97;10404661;28;20498;-69
2024/02/04 22:07:40;;;;;;;0.10;0.10;;;;;;;-145.06;100.00;56679.97;10408220;28;20040;-69
2024/02/04 22:12:40;;;;;;;0.03;0.03;;;;;;;-145.06;100.00;56767.13;10407904;28;20391;-69
2024/02/04 22:17:41;;;;;;;0.00;0.00;;;;;;;-145.06;100.00;56819.81;10408724;28;20036;-69
2024/02/04 22:22:41;;;;;;;0.08;0.08;;;;;;;-145.06;100.00;56856.28;10407212;28;20022;-68
2024/02/04 22:27:41;;;;;;;0.00;0.00;;;;;;;-145.06;100.00;56763.06;10405393;28;20104;-69
2024/02/04 22:32:43;;;;;;;0.10;0.10;;;;;;;-145.06;100.00;56505.69;10406165;28;20316;-68